Time;durP1;ratioP1;P1;durP2;ratioP2;P2;SDS_P1;SDS_P2;PMS_P1;PMS_P2;Temp;Humidity;BMP_temperature;BMP_pressure;BME280_temperature;BME280_humidity;BME280_pressure;Samples;Min_cycle;Max_cycle;Signal;HPM_P1;HPM_P2
2022/01/07 00:00:03;;;;;;;3.55;0.82;;;2.40;99.90;;;;;;5036796;28;20203;-79
2022/01/07 00:02:31;;;;;;;1.23;1.17;;;2.50;99.90;;;;;;5036783;28;20219;-79
2022/01/07 00:04:58;;;;;;;1.25;1.05;;;2.50;99.90;;;;;;5036824;28;20195;-79
2022/01/07 00:07:25;;;;;;;2.92;1.25;;;2.50;99.90;;;;;;5035640;28;20600;-79
2022/01/07 00:09:51;;;;;;;1.08;0.98;;;2.50;99.90;;;;;;5036653;28;20208;-79
2022/01/07 00:12:21;;;;;;;0.50;0.50;;;2.50;99.90;;;;;;5036258;28;20198;-79
2022/01/07 00:14:48;;;;;;;4.10;3.53;;;2.50;99.90;;;;;;5036273;28;20203;-78
2022/01/07 00:17:16;;;;;;;0.93;0.70;;;2.50;99.90;;;;;;5036508;28;20223;-80
2022/01/07 00:19:44;;;;;;;0.80;0.80;;;2.60;99.90;;;;;;5036260;28;20463;-80
2022/01/07 00:22:11;;;;;;;2.88;0.90;;;2.60;99.90;;;;;;5036256;28;20215;-80
2022/01/07 00:24:38;;;;;;;6.07;3.67;;;2.60;99.90;;;;;;5036125;28;20557;-79
2022/01/07 00:27:05;;;;;;;1.08;0.65;;;2.60;99.90;;;;;;5035593;28;20581;-79
2022/01/07 00:29:32;;;;;;;0.98;0.98;;;2.60;99.90;;;;;;5034895;28;20203;-80
2022/01/07 00:31:58;;;;;;;0.60;0.60;;;2.60;99.90;;;;;;5035563;28;20195;-80
2022/01/07 00:34:25;;;;;;;0.60;0.60;;;2.60;99.90;;;;;;5035995;28;20577;-79
2022/01/07 00:36:53;;;;;;;2.92;2.45;;;2.60;99.90;;;;;;5036036;28;20226;-79
2022/01/07 00:39:20;;;;;;;4.15;2.05;;;2.60;99.90;;;;;;5035277;28;20199;-79
2022/01/07 00:41:47;;;;;;;3.72;1.25;;;2.60;99.90;;;;;;5035605;28;20218;-79
2022/01/07 00:44:14;;;;;;;2.65;0.77;;;2.60;99.90;;;;;;5035573;28;20206;-79
2022/01/07 00:46:41;;;;;;;0.63;0.60;;;2.60;99.90;;;;;;5035658;28;20231;-79
2022/01/07 00:49:07;;;;;;;0.68;0.68;;;2.60;99.90;;;;;;5034586;28;20320;-80
2022/01/07 00:51:34;;;;;;;1.35;1.25;;;2.60;99.90;;;;;;5035314;28;20191;-79
2022/01/07 00:54:02;;;;;;;2.15;2.05;;;2.60;99.90;;;;;;5035066;28;20203;-79
2022/01/07 00:56:29;;;;;;;2.78;1.25;;;2.60;99.90;;;;;;5034511;28;20223;-79
2022/01/07 00:58:56;;;;;;;0.70;0.70;;;2.60;99.90;;;;;;5035212;28;20696;-80
2022/01/07 01:01:23;;;;;;;2.10;1.42;;;2.60;99.90;;;;;;5034875;28;20691;-79
2022/01/07 01:03:49;;;;;;;1.35;0.65;;;2.70;99.90;;;;;;5035048;28;20213;-78
2022/01/07 01:06:16;;;;;;;2.13;1.92;;;2.70;99.90;;;;;;5034705;28;20215;-80
2022/01/07 01:08:43;;;;;;;0.50;0.50;;;2.70;99.90;;;;;;5034587;28;20202;-79
2022/01/07 01:11:11;;;;;;;1.23;1.13;;;2.70;99.90;;;;;;5034866;28;20198;-79
2022/01/07 01:13:38;;;;;;;3.65;3.17;;;2.80;99.90;;;;;;5035535;28;20206;-78
2022/01/07 01:16:05;;;;;;;2.10;2.00;;;2.80;99.90;;;;;;5035442;28;20223;-79
2022/01/07 01:18:31;;;;;;;1.48;1.38;;;2.80;99.90;;;;;;5035227;28;20203;-80
2022/01/07 01:20:58;;;;;;;1.13;1.02;;;2.80;99.90;;;;;;5034653;28;20202;-79
2022/01/07 01:23:25;;;;;;;0.50;0.50;;;2.80;99.90;;;;;;5035390;28;20202;-79
2022/01/07 01:25:52;;;;;;;0.50;0.40;;;2.90;99.90;;;;;;5034183;28;20212;-79
2022/01/07 01:28:20;;;;;;;1.00;0.90;;;2.90;99.90;;;;;;5034419;28;20203;-79
2022/01/07 01:30:47;;;;;;;0.50;0.40;;;2.90;99.90;;;;;;5033593;28;20210;-80
2022/01/07 01:33:14;;;;;;;2.00;1.90;;;2.90;99.90;;;;;;5034112;28;20284;-79
2022/01/07 01:35:42;;;;;;;9.07;2.03;;;2.90;99.90;;;;;;5034132;28;20219;-79
2022/01/07 01:38:09;;;;;;;7.03;2.50;;;2.90;99.90;;;;;;5035572;28;20203;-79
2022/01/07 01:40:36;;;;;;;0.93;0.93;;;2.90;99.90;;;;;;5033977;28;20191;-79
2022/01/07 01:43:03;;;;;;;1.75;1.60;;;2.90;99.90;;;;;;5034702;28;20226;-79
2022/01/07 01:45:31;;;;;;;1.73;0.95;;;2.90;99.90;;;;;;5034627;28;20230;-80
2022/01/07 01:47:58;;;;;;;2.15;1.08;;;2.90;99.90;;;;;;5034434;28;20203;-79
2022/01/07 01:50:25;;;;;;;1.42;0.90;;;2.90;99.90;;;;;;5033664;28;20199;-79
2022/01/07 01:52:54;;;;;;;0.50;0.40;;;2.90;99.90;;;;;;5034396;28;20695;-79
2022/01/07 01:55:23;;;;;;;7.50;1.65;;;2.90;99.90;;;;;;5033465;28;20282;-79
2022/01/07 01:57:52;;;;;;;1.60;1.10;;;2.90;99.90;;;;;;5034510;28;20196;-79
2022/01/07 02:00:20;;;;;;;3.55;2.35;;;2.90;99.90;;;;;;5034033;28;20576;-79
2022/01/07 02:02:48;;;;;;;0.77;0.77;;;2.90;99.90;;;;;;5034038;28;20721;-79
2022/01/07 02:05:16;;;;;;;1.95;1.83;;;2.90;99.90;;;;;;5034480;28;20198;-80
2022/01/07 02:07:43;;;;;;;0.80;0.80;;;2.90;99.90;;;;;;5034229;28;20202;-79
2022/01/07 02:10:12;;;;;;;3.25;3.00;;;2.90;99.90;;;;;;5034027;28;20199;-79
2022/01/07 02:12:40;;;;;;;2.17;1.00;;;2.90;99.90;;;;;;5033687;28;20200;-79
2022/01/07 02:15:09;;;;;;;5.05;3.83;;;2.90;99.90;;;;;;5033381;28;20206;-78
2022/01/07 02:17:36;;;;;;;1.27;0.95;;;2.90;99.90;;;;;;5034531;28;20199;-79
2022/01/07 02:20:05;;;;;;;3.58;1.80;;;2.90;99.90;;;;;;5033731;28;20196;-79
2022/01/07 02:22:31;;;;;;;2.20;1.65;;;2.80;99.90;;;;;;5033448;28;20212;-79
2022/01/07 02:24:58;;;;;;;2.38;2.17;;;2.70;99.90;;;;;;5033828;28;20707;-79
2022/01/07 02:27:25;;;;;;;0.60;0.60;;;2.70;99.90;;;;;;5033777;28;20226;-79
2022/01/07 02:29:54;;;;;;;0.65;0.65;;;2.70;99.90;;;;;;5034305;28;20191;-79
2022/01/07 02:32:21;;;;;;;1.33;1.23;;;2.70;99.90;;;;;;5037780;28;20199;-79
2022/01/07 02:34:49;;;;;;;2.05;1.55;;;2.60;99.90;;;;;;5038575;28;20195;-77
2022/01/07 02:37:17;;;;;;;0.60;0.60;;;2.60;99.90;;;;;;5037631;28;20219;-80
2022/01/07 02:39:45;;;;;;;0.75;0.60;;;2.50;99.90;;;;;;5038036;28;20538;-79
2022/01/07 02:42:12;;;;;;;1.27;1.13;;;2.50;99.90;;;;;;5037916;28;20306;-80
2022/01/07 02:44:39;;;;;;;1.63;1.52;;;2.40;99.90;;;;;;5038317;28;20195;-80
2022/01/07 02:47:06;;;;;;;5.18;1.80;;;2.40;99.90;;;;;;5037561;28;20211;-80
2022/01/07 02:49:32;;;;;;;4.00;2.72;;;2.30;99.90;;;;;;5036878;28;20195;-77
2022/01/07 02:51:59;;;;;;;3.17;2.97;;;2.20;99.90;;;;;;5037625;28;20216;-79
2022/01/07 02:54:27;;;;;;;1.08;0.90;;;2.20;99.90;;;;;;5037642;28;20191;-79
2022/01/07 02:56:54;;;;;;;1.45;1.42;;;2.20;99.90;;;;;;5037179;28;20230;-79
2022/01/07 02:59:21;;;;;;;2.30;2.10;;;2.20;99.90;;;;;;5036583;28;20217;-80
2022/01/07 03:01:47;;;;;;;1.30;1.20;;;2.20;99.90;;;;;;5036602;28;20215;-79
2022/01/07 03:04:14;;;;;;;2.47;2.28;;;2.10;99.90;;;;;;5037040;28;20210;-80
2022/01/07 03:06:42;;;;;;;3.28;1.08;;;2.10;99.90;;;;;;5036793;28;20705;-78
2022/01/07 03:09:09;;;;;;;2.25;1.40;;;2.00;99.90;;;;;;5036717;28;20207;-80
2022/01/07 03:11:37;;;;;;;0.82;0.70;;;2.00;99.90;;;;;;5036761;28;20202;-80
2022/01/07 03:14:04;;;;;;;6.18;1.50;;;2.00;99.90;;;;;;5036534;28;20198;-79
2022/01/07 03:16:31;;;;;;;0.70;0.70;;;2.00;99.90;;;;;;5036687;28;20711;-80
2022/01/07 03:18:58;;;;;;;1.98;1.77;;;2.00;99.90;;;;;;5036582;28;20209;-79
2022/01/07 03:21:25;;;;;;;2.05;0.98;;;2.00;99.90;;;;;;5037112;28;20206;-80
2022/01/07 03:23:52;;;;;;;5.88;1.58;;;1.90;99.90;;;;;;5036728;28;20226;-79
2022/01/07 03:26:18;;;;;;;1.23;1.13;;;1.90;99.90;;;;;;5037377;28;20229;-79
2022/01/07 03:28:47;;;;;;;1.30;1.20;;;1.80;99.90;;;;;;5037170;28;20234;-79
2022/01/07 03:31:14;;;;;;;1.20;0.85;;;1.80;99.90;;;;;;5036585;28;20206;-80
2022/01/07 03:33:41;;;;;;;4.55;1.80;;;1.80;99.90;;;;;;5037128;28;20202;-78
2022/01/07 03:36:08;;;;;;;0.40;0.40;;;1.80;99.90;;;;;;5037322;28;20222;-79
2022/01/07 03:38:36;;;;;;;0.40;0.30;;;1.80;99.90;;;;;;5036596;28;20206;-80
2022/01/07 03:41:03;;;;;;;0.70;0.70;;;1.70;99.90;;;;;;5035744;28;20205;-79
2022/01/07 03:43:29;;;;;;;2.25;1.95;;;1.70;99.90;;;;;;5036564;28;20223;-76
2022/01/07 03:45:57;;;;;;;0.47;0.43;;;1.60;99.90;;;;;;5036531;28;20218;-79
2022/01/07 03:48:24;;;;;;;4.30;0.93;;;1.60;99.90;;;;;;5036895;28;20210;-78
2022/01/07 03:50:51;;;;;;;5.30;2.15;;;1.70;99.90;;;;;;5036321;28;20576;-79
2022/01/07 03:53:18;;;;;;;5.25;2.75;;;1.60;99.90;;;;;;5036362;28;20549;-79
2022/01/07 03:55:45;;;;;;;6.63;3.28;;;1.60;99.90;;;;;;5035873;28;20225;-80
2022/01/07 03:58:12;;;;;;;0.70;0.65;;;1.60;99.90;;;;;;5036354;28;20203;-79
2022/01/07 04:00:40;;;;;;;2.33;1.90;;;1.70;99.90;;;;;;5036457;28;20202;-81
2022/01/07 04:03:11;;;;;;;1.58;1.15;;;1.70;99.90;;;;;;5036432;28;20222;-82
2022/01/07 04:05:37;;;;;;;5.45;3.38;;;1.70;99.90;;;;;;5036687;28;20234;-81
2022/01/07 04:08:05;;;;;;;1.15;0.93;;;1.70;99.90;;;;;;5035811;28;20581;-81
2022/01/07 04:10:32;;;;;;;1.15;1.13;;;1.70;99.90;;;;;;5035816;28;20206;-81
2022/01/07 04:12:59;;;;;;;0.40;0.30;;;1.70;99.90;;;;;;5035987;28;20195;-79
2022/01/07 04:15:26;;;;;;;0.88;0.80;;;1.70;99.90;;;;;;5036096;28;20219;-80
2022/01/07 04:17:54;;;;;;;0.60;0.60;;;1.80;99.90;;;;;;5035977;28;20719;-80
2022/01/07 04:20:25;;;;;;;3.10;2.80;;;1.80;99.90;;;;;;5035719;28;20202;-81
2022/01/07 04:22:51;;;;;;;2.03;1.85;;;1.80;99.90;;;;;;5035354;28;20233;-81
2022/01/07 04:25:19;;;;;;;3.10;1.88;;;1.80;99.90;;;;;;5034905;28;20201;-80
2022/01/07 04:27:46;;;;;;;0.40;0.40;;;1.90;99.90;;;;;;5035611;28;20199;-81
2022/01/07 04:30:14;;;;;;;0.55;0.55;;;1.90;99.90;;;;;;5034528;28;20225;-81
2022/01/07 04:32:42;;;;;;;1.35;1.10;;;1.90;99.90;;;;;;5035692;28;20206;-81
2022/01/07 04:35:11;;;;;;;1.77;0.88;;;1.90;99.90;;;;;;5035501;28;20225;-80
2022/01/07 04:37:40;;;;;;;1.45;1.15;;;1.90;99.90;;;;;;5035286;28;20202;-81
2022/01/07 04:40:09;;;;;;;5.10;1.95;;;1.90;99.90;;;;;;5035221;28;20195;-80
2022/01/07 04:42:36;;;;;;;1.02;1.02;;;1.90;99.90;;;;;;5040780;28;20219;-79
2022/01/07 04:45:04;;;;;;;0.82;0.82;;;1.90;99.90;;;;;;5041609;28;20289;-78
2022/01/07 04:47:31;;;;;;;0.40;0.40;;;1.90;99.90;;;;;;5039991;28;20564;-80
2022/01/07 04:49:58;;;;;;;2.28;2.08;;;2.00;99.90;;;;;;5039718;28;20624;-82
2022/01/07 04:52:25;;;;;;;1.67;1.10;;;2.00;99.90;;;;;;5034198;28;20565;-79
2022/01/07 04:54:53;;;;;;;4.30;2.60;;;2.00;99.90;;;;;;5035441;28;20204;-81
2022/01/07 04:57:20;;;;;;;1.42;1.30;;;2.00;99.90;;;;;;5035586;28;20597;-82
2022/01/07 04:59:46;;;;;;;0.55;0.55;;;2.00;99.90;;;;;;5035901;28;20195;-83
2022/01/07 05:02:13;;;;;;;0.77;0.77;;;2.00;99.90;;;;;;5035837;28;20205;-84
2022/01/07 05:04:40;;;;;;;7.30;3.10;;;2.10;99.90;;;;;;5035617;28;20199;-83
2022/01/07 05:07:07;;;;;;;5.13;2.15;;;2.00;99.90;;;;;;5035626;28;20227;-80
2022/01/07 05:09:34;;;;;;;0.75;0.75;;;2.10;99.90;;;;;;5035312;28;20206;-83
2022/01/07 05:12:02;;;;;;;9.98;4.20;;;2.10;99.90;;;;;;5035378;28;20261;-83
2022/01/07 05:14:29;;;;;;;0.50;0.50;;;2.10;99.90;;;;;;5035829;28;20255;-82
2022/01/07 05:16:56;;;;;;;2.30;0.93;;;2.10;99.90;;;;;;5035454;28;20214;-83
2022/01/07 05:19:22;;;;;;;1.20;1.10;;;2.10;99.90;;;;;;5036860;28;20205;-83
2022/01/07 05:21:49;;;;;;;2.53;1.70;;;2.00;99.90;;;;;;5035517;28;20203;-83
2022/01/07 05:24:16;;;;;;;1.13;0.98;;;2.00;99.90;;;;;;5036216;28;20222;-83
2022/01/07 05:26:43;;;;;;;1.63;1.25;;;2.00;99.90;;;;;;5035446;28;20214;-83
2022/01/07 05:29:11;;;;;;;3.45;2.83;;;2.00;99.90;;;;;;5035138;28;20205;-83
2022/01/07 05:31:38;;;;;;;1.27;1.17;;;2.00;99.90;;;;;;5035714;28;20202;-83
2022/01/07 05:34:04;;;;;;;5.60;1.92;;;1.90;99.90;;;;;;5036223;28;20198;-83
2022/01/07 05:36:31;;;;;;;2.80;2.60;;;1.80;99.90;;;;;;5036059;28;20225;-83
2022/01/07 05:38:58;;;;;;;2.38;1.63;;;1.80;99.90;;;;;;5035486;28;20205;-81
2022/01/07 05:41:25;;;;;;;2.85;2.65;;;1.80;99.90;;;;;;5036294;28;20227;-83
2022/01/07 05:43:52;;;;;;;0.80;0.80;;;1.80;99.90;;;;;;5034621;28;20233;-83
2022/01/07 05:46:20;;;;;;;0.95;0.95;;;1.70;99.90;;;;;;5034691;28;20711;-83
2022/01/07 05:48:47;;;;;;;1.15;1.02;;;1.70;99.90;;;;;;5036000;28;20198;-83
2022/01/07 05:51:15;;;;;;;0.70;0.70;;;1.60;99.90;;;;;;5035218;28;20212;-83
2022/01/07 05:53:42;;;;;;;2.78;1.60;;;1.50;99.90;;;;;;5034956;28;20208;-83
2022/01/07 05:56:09;;;;;;;1.45;1.35;;;1.40;99.90;;;;;;5034874;28;20234;-83
2022/01/07 05:58:37;;;;;;;5.50;2.55;;;1.30;99.90;;;;;;5034909;28;20202;-83
2022/01/07 06:01:05;;;;;;;1.42;1.27;;;1.30;99.90;;;;;;5034520;28;20194;-82
2022/01/07 06:03:33;;;;;;;5.75;2.35;;;1.20;99.90;;;;;;5034621;28;20214;-84
2022/01/07 06:06:00;;;;;;;2.58;2.42;;;1.20;99.90;;;;;;5035202;28;20249;-82
2022/01/07 06:08:27;;;;;;;3.80;1.95;;;1.20;99.90;;;;;;5036588;28;20197;-82
2022/01/07 06:10:53;;;;;;;1.70;1.60;;;1.10;99.90;;;;;;5035552;28;20195;-82
2022/01/07 06:13:20;;;;;;;1.48;1.38;;;1.10;99.90;;;;;;5036191;28;20627;-81
2022/01/07 06:15:47;;;;;;;7.60;3.28;;;1.10;99.90;;;;;;5034734;28;20222;-81
2022/01/07 06:18:14;;;;;;;0.80;0.80;;;1.10;99.90;;;;;;5034371;28;20188;-79
2022/01/07 06:20:42;;;;;;;0.93;0.93;;;1.10;99.90;;;;;;5034503;28;20193;-81
2022/01/07 06:23:08;;;;;;;1.45;1.40;;;1.10;99.90;;;;;;5034674;28;20234;-81
2022/01/07 06:25:35;;;;;;;4.10;1.45;;;1.20;99.90;;;;;;5034237;28;20222;-81
2022/01/07 06:28:02;;;;;;;3.20;2.47;;;1.20;99.90;;;;;;5034084;28;20197;-82
2022/01/07 06:30:29;;;;;;;0.85;0.85;;;1.20;99.90;;;;;;5033665;28;20194;-82
2022/01/07 06:32:55;;;;;;;1.77;1.67;;;1.20;99.90;;;;;;5034291;28;20192;-81
2022/01/07 06:35:22;;;;;;;1.25;1.15;;;1.20;99.90;;;;;;5034280;28;20191;-82
2022/01/07 06:37:50;;;;;;;6.28;2.55;;;1.20;99.90;;;;;;5035073;28;20209;-81
2022/01/07 06:40:17;;;;;;;1.23;1.08;;;1.30;99.90;;;;;;5033703;28;20199;-82
2022/01/07 06:42:44;;;;;;;0.93;0.93;;;1.30;99.90;;;;;;5035065;28;20207;-81
2022/01/07 06:45:10;;;;;;;4.43;0.98;;;1.30;99.90;;;;;;5034557;28;20550;-82
2022/01/07 06:47:37;;;;;;;0.70;0.70;;;1.40;99.90;;;;;;5035609;28;20209;-82
2022/01/07 06:50:05;;;;;;;1.50;1.40;;;1.40;99.90;;;;;;5034724;28;20198;-82
2022/01/07 06:52:32;;;;;;;1.95;1.85;;;1.40;99.90;;;;;;5039057;28;20195;-81
2022/01/07 06:55:00;;;;;;;1.52;1.40;;;1.50;99.90;;;;;;5034271;28;20360;-81
2022/01/07 06:57:27;;;;;;;0.40;0.30;;;1.50;99.90;;;;;;5034474;28;20227;-81
2022/01/07 06:59:54;;;;;;;11.85;3.85;;;1.50;99.90;;;;;;5033986;28;20205;-81
2022/01/07 07:02:20;;;;;;;2.42;2.30;;;1.50;99.90;;;;;;5034764;28;20194;-81
2022/01/07 07:04:47;;;;;;;0.65;0.65;;;1.60;99.90;;;;;;5034318;28;21017;-81
2022/01/07 07:07:14;;;;;;;2.03;1.83;;;1.60;99.90;;;;;;5033809;28;20223;-81
2022/01/07 07:09:41;;;;;;;1.88;1.77;;;1.60;99.90;;;;;;5034092;28;20202;-82
2022/01/07 07:12:12;;;;;;;2.10;2.00;;;1.70;99.90;;;;;;5034173;28;20195;-82
2022/01/07 07:14:38;;;;;;;2.05;1.00;;;1.70;99.90;;;;;;5034861;28;20182;-81
2022/01/07 07:17:05;;;;;;;2.50;2.40;;;1.70;99.90;;;;;;5036354;28;20229;-82
2022/01/07 07:19:32;;;;;;;1.38;1.27;;;1.80;99.90;;;;;;5036907;28;20195;-81
2022/01/07 07:21:59;;;;;;;1.38;1.27;;;1.80;99.90;;;;;;5037818;28;20234;-81
2022/01/07 07:24:26;;;;;;;2.47;1.75;;;1.90;99.90;;;;;;5037993;28;20211;-82
2022/01/07 07:26:53;;;;;;;2.78;1.73;;;1.90;99.90;;;;;;5037576;28;20208;-81
2022/01/07 07:29:21;;;;;;;1.20;1.10;;;2.00;99.90;;;;;;5036932;28;20191;-81
2022/01/07 07:31:51;;;;;;;0.75;0.75;;;2.00;99.90;;;;;;5036949;28;20580;-82
2022/01/07 07:34:43;;;;;;;2.05;1.95;;;2.00;99.90;;;;;;5037519;28;20254;-81
2022/01/07 07:37:10;;;;;;;1.25;1.20;;;2.10;99.90;;;;;;5036314;28;20253;-80
2022/01/07 07:39:37;;;;;;;2.40;2.08;;;2.10;99.90;;;;;;5035883;28;20187;-82
2022/01/07 07:42:05;;;;;;;2.30;2.20;;;2.10;99.90;;;;;;5036057;28;20194;-80
2022/01/07 07:44:33;;;;;;;1.58;1.20;;;2.20;99.90;;;;;;5035560;28;20656;-81
2022/01/07 07:47:00;;;;;;;0.50;0.50;;;2.20;99.90;;;;;;5035814;28;20233;-81
2022/01/07 07:49:27;;;;;;;1.35;1.10;;;2.20;99.90;;;;;;5036034;28;20195;-81
2022/01/07 07:51:54;;;;;;;1.45;1.30;;;2.30;99.90;;;;;;5035782;28;20190;-82
2022/01/07 07:54:21;;;;;;;1.60;1.50;;;2.30;99.90;;;;;;5036611;28;20194;-81
2022/01/07 07:56:48;;;;;;;1.50;1.40;;;2.30;99.90;;;;;;5035323;28;20254;-82
2022/01/07 07:59:15;;;;;;;3.55;1.10;;;2.40;99.90;;;;;;5035446;28;20648;-81
2022/01/07 08:01:43;;;;;;;0.95;0.95;;;2.40;99.90;;;;;;5036427;28;20204;-82
2022/01/07 08:04:12;;;;;;;12.63;2.42;;;2.40;99.90;;;;;;5035913;28;20211;-81
2022/01/07 08:06:39;;;;;;;0.40;0.40;;;2.40;99.90;;;;;;5036630;28;20282;-83
2022/01/07 08:09:05;;;;;;;0.40;0.40;;;2.50;99.90;;;;;;5037323;28;20202;-82
2022/01/07 08:11:47;;;;;;;3.40;1.08;;;2.50;99.90;;;;;;5037933;28;20691;-83
2022/01/07 08:16:59;;;;;;;7.28;1.85;;;2.50;99.90;;;;;;5038224;28;20293;-83
2022/01/07 08:19:26;;;;;;;0.43;0.40;;;2.60;99.90;;;;;;5038214;28;20202;-83
2022/01/07 08:21:53;;;;;;;1.35;0.73;;;2.60;99.90;;;;;;5038036;28;20229;-82
2022/01/07 08:24:20;;;;;;;0.40;0.30;;;2.60;99.90;;;;;;5037900;28;20222;-79
2022/01/07 08:26:47;;;;;;;1.50;0.95;;;2.60;99.90;;;;;;5035943;28;20214;-81
2022/01/07 08:29:15;;;;;;;0.40;0.40;;;2.60;99.90;;;;;;5036339;28;20552;-82
2022/01/07 08:37:11;;;;;;;1.50;1.05;;;2.70;99.90;;;;;;5035950;28;20306;-79
2022/01/07 08:39:39;;;;;;;1.00;1.00;;;2.70;99.90;;;;;;5035838;28;20195;-81
2022/01/07 08:42:06;;;;;;;0.77;0.77;;;2.70;99.90;;;;;;5035020;28;20191;-81
2022/01/07 08:44:33;;;;;;;0.40;0.40;;;2.70;99.90;;;;;;5034886;28;20219;-81
2022/01/07 08:47:00;;;;;;;0.70;0.70;;;2.80;99.90;;;;;;5036172;28;20225;-81
2022/01/07 08:49:28;;;;;;;0.40;0.40;;;2.80;99.90;;;;;;5035096;28;20206;-81
2022/01/07 08:51:54;;;;;;;0.98;0.88;;;2.80;99.90;;;;;;5035938;28;20191;-81
2022/01/07 08:54:21;;;;;;;1.02;1.02;;;2.90;99.90;;;;;;5035874;28;20199;-81
2022/01/07 08:56:49;;;;;;;1.42;1.33;;;2.90;99.90;;;;;;5035287;28;20566;-81
2022/01/07 08:59:15;;;;;;;0.50;0.50;;;2.90;99.90;;;;;;5035047;28;20192;-80
2022/01/07 09:01:42;;;;;;;4.93;1.95;;;3.00;99.90;;;;;;5035280;28;20214;-80
2022/01/07 09:04:09;;;;;;;2.20;2.00;;;3.00;99.90;;;;;;5035184;28;20211;-80
2022/01/07 09:06:37;;;;;;;1.73;1.63;;;3.00;99.90;;;;;;5035019;28;20218;-80
2022/01/07 09:09:04;;;;;;;1.30;1.30;;;3.00;99.90;;;;;;5034983;28;20209;-80
2022/01/07 09:11:31;;;;;;;2.38;1.25;;;3.10;99.90;;;;;;5034923;28;20207;-80
2022/01/07 09:13:58;;;;;;;0.70;0.68;;;3.10;99.90;;;;;;5034858;28;20195;-79
2022/01/07 09:16:26;;;;;;;3.72;1.20;;;3.20;99.90;;;;;;5034610;28;20553;-79
2022/01/07 09:18:53;;;;;;;0.50;0.50;;;3.20;99.90;;;;;;5034170;28;20187;-81
2022/01/07 09:21:20;;;;;;;0.60;0.60;;;3.30;99.90;;;;;;5034695;28;20893;-84
2022/01/07 09:23:48;;;;;;;0.73;0.73;;;3.30;99.90;;;;;;5034669;28;20203;-82
2022/01/07 09:26:15;;;;;;;0.93;0.93;;;3.30;99.90;;;;;;5034950;28;20225;-81
2022/01/07 09:28:42;;;;;;;0.77;0.77;;;3.40;99.90;;;;;;5034551;28;20202;-80
2022/01/07 09:31:08;;;;;;;1.60;0.82;;;3.40;99.90;;;;;;5033456;28;20577;-80
2022/01/07 09:33:35;;;;;;;0.60;0.40;;;3.40;99.90;;;;;;5033814;28;20191;-79
2022/01/07 09:36:02;;;;;;;1.40;1.30;;;3.40;99.90;;;;;;5033187;28;20221;-81
2022/01/07 09:38:29;;;;;;;0.40;0.40;;;3.50;99.90;;;;;;5033579;28;20191;-81
2022/01/07 09:40:57;;;;;;;1.08;1.08;;;3.50;99.90;;;;;;5033487;28;20191;-80
2022/01/07 09:43:23;;;;;;;1.98;1.48;;;3.60;99.90;;;;;;5034021;28;20199;-80
2022/01/07 09:45:51;;;;;;;0.40;0.40;;;3.60;99.90;;;;;;5033797;28;20257;-80
2022/01/07 09:48:18;;;;;;;0.40;0.40;;;3.60;99.90;;;;;;5033845;28;20191;-80
2022/01/07 09:50:46;;;;;;;0.40;0.40;;;3.70;99.90;;;;;;5033106;28;20198;-80
2022/01/07 09:53:15;;;;;;;0.40;0.30;;;3.70;99.90;;;;;;5033743;28;20201;-82
2022/01/07 09:55:43;;;;;;;1.17;1.17;;;3.80;99.90;;;;;;5033533;28;20250;-80
2022/01/07 09:58:13;;;;;;;1.08;0.98;;;3.80;99.90;;;;;;5034230;28;20203;-81
2022/01/07 10:00:41;;;;;;;2.90;1.70;;;3.80;99.90;;;;;;5034465;28;20222;-80
2022/01/07 10:03:09;;;;;;;1.90;0.98;;;3.90;99.90;;;;;;5033326;28;20209;-80
2022/01/07 10:05:47;;;;;;;0.68;0.68;;;3.90;99.90;;;;;;5033541;28;20219;-80
2022/01/07 10:08:24;;;;;;;1.50;0.65;;;3.90;99.90;;;;;;5033779;28;20191;-79
2022/01/07 10:11:11;;;;;;;1.48;1.38;;;3.90;99.90;;;;;;5033261;28;20273;-79
2022/01/07 10:13:40;;;;;;;0.95;0.95;;;3.90;99.90;;;;;;5033133;28;20199;-81
2022/01/07 10:16:17;;;;;;;1.85;0.98;;;3.90;99.90;;;;;;5033796;28;20302;-79
2022/01/07 10:18:44;;;;;;;0.82;0.82;;;4.00;99.90;;;;;;5034221;28;20178;-79
2022/01/07 10:21:12;;;;;;;0.73;0.73;;;4.00;99.90;;;;;;5033542;28;20701;-79
2022/01/07 10:23:39;;;;;;;2.15;1.30;;;4.00;99.90;;;;;;5033618;28;20245;-81
2022/01/07 10:26:14;;;;;;;0.50;0.50;;;4.10;99.90;;;;;;5032837;28;20220;-81
2022/01/07 10:28:42;;;;;;;0.93;0.93;;;4.10;99.90;;;;;;5033860;28;20179;-80
2022/01/07 10:31:10;;;;;;;2.65;1.98;;;4.20;99.90;;;;;;5033516;28;20191;-79
2022/01/07 10:33:38;;;;;;;0.60;0.60;;;4.20;99.90;;;;;;5033498;28;20219;-81
2022/01/07 10:36:22;;;;;;;2.80;1.33;;;4.20;99.90;;;;;;5034323;28;20211;-81
2022/01/07 10:38:52;;;;;;;1.45;1.15;;;4.10;99.90;;;;;;5033414;28;20202;-80
2022/01/07 10:41:19;;;;;;;0.85;0.77;;;4.10;99.90;;;;;;5033596;28;20192;-80
2022/01/07 10:43:48;;;;;;;1.50;0.80;;;4.20;99.90;;;;;;5033255;28;20195;-79
2022/01/07 10:46:19;;;;;;;1.60;1.10;;;4.20;99.90;;;;;;5033121;28;20225;-81
2022/01/07 10:48:50;;;;;;;0.40;0.40;;;4.20;99.90;;;;;;5032773;28;20648;-78
2022/01/07 10:51:19;;;;;;;0.80;0.68;;;4.10;99.90;;;;;;5035135;28;20191;-80
2022/01/07 10:53:51;;;;;;;0.75;0.75;;;4.10;99.90;;;;;;5037185;28;20195;-81
2022/01/07 10:56:19;;;;;;;0.93;0.60;;;4.10;99.90;;;;;;5037360;28;20227;-81
2022/01/07 10:59:02;;;;;;;0.73;0.73;;;4.10;99.90;;;;;;5036423;28;20198;-79
2022/01/07 11:01:33;;;;;;;1.75;1.63;;;4.20;99.90;;;;;;5036877;28;20258;-81
2022/01/07 11:04:02;;;;;;;0.60;0.60;;;4.30;99.90;;;;;;5037425;28;20191;-81
2022/01/07 11:06:30;;;;;;;1.23;1.00;;;4.30;99.90;;;;;;5036284;28;20207;-81
2022/01/07 11:08:58;;;;;;;0.88;0.88;;;4.30;99.90;;;;;;5036186;28;20188;-82
2022/01/07 11:11:27;;;;;;;2.25;1.05;;;4.30;99.90;;;;;;5035997;28;20198;-81
2022/01/07 11:13:54;;;;;;;0.60;0.60;;;4.30;99.90;;;;;;5036361;28;20218;-81
2022/01/07 11:16:22;;;;;;;0.60;0.55;;;4.30;99.90;;;;;;5035725;28;20318;-81
2022/01/07 11:18:50;;;;;;;0.80;0.70;;;4.40;99.90;;;;;;5035611;28;20207;-79
2022/01/07 11:21:18;;;;;;;2.60;0.65;;;4.40;99.90;;;;;;5036869;28;20191;-80
2022/01/07 11:23:45;;;;;;;1.30;1.30;;;4.40;99.90;;;;;;5035774;28;20281;-81
2022/01/07 11:26:15;;;;;;;0.82;0.63;;;4.50;99.90;;;;;;5036181;28;20303;-79
2022/01/07 11:28:56;;;;;;;2.00;1.42;;;4.50;99.90;;;;;;5036661;28;20283;-79
2022/01/07 11:31:25;;;;;;;0.40;0.40;;;4.50;99.90;;;;;;5036155;28;20704;-80
2022/01/07 11:34:25;;;;;;;0.82;0.60;;;4.50;99.90;;;;;;5035391;28;20670;-82
2022/01/07 11:36:52;;;;;;;0.80;0.80;;;4.60;99.90;;;;;;5036535;28;20214;-82
2022/01/07 11:39:22;;;;;;;1.23;1.13;;;4.50;99.90;;;;;;5035804;28;20204;-81
2022/01/07 11:41:53;;;;;;;1.17;1.08;;;4.50;99.90;;;;;;5035656;28;20194;-80
2022/01/07 11:44:26;;;;;;;0.40;0.40;;;4.50;99.90;;;;;;5036189;28;20186;-81
2022/01/07 11:47:21;;;;;;;1.23;1.00;;;4.50;99.90;;;;;;5028490;28;20285;-81
2022/01/07 11:50:01;;;;;;;0.88;0.88;;;4.60;99.90;;;;;;5035570;28;20195;-81
2022/01/07 11:52:37;;;;;;;3.05;2.47;;;4.60;99.90;;;;;;5029571;28;20202;-79
2022/01/07 11:55:26;;;;;;;4.28;0.75;;;4.60;99.90;;;;;;5015185;28;20252;-81
2022/01/07 11:57:55;;;;;;;7.75;2.63;;;4.60;99.90;;;;;;5019873;28;20204;-79
2022/01/07 12:00:53;;;;;;;2.65;1.27;;;4.70;99.90;;;;;;5016235;28;20250;-80
2022/01/07 12:03:41;;;;;;;0.75;0.60;;;4.60;99.90;;;;;;5031851;28;20592;-79
2022/01/07 12:06:46;;;;;;;1.27;1.05;;;4.60;99.90;;;;;;5024732;28;20216;-81
2022/01/07 12:09:19;;;;;;;1.52;1.30;;;4.70;99.90;;;;;;5019796;28;20231;-82
2022/01/07 12:11:53;;;;;;;2.17;1.23;;;4.60;99.90;;;;;;5019533;28;20187;-80
2022/01/07 12:14:23;;;;;;;2.08;1.35;;;4.60;99.90;;;;;;5020033;28;20184;-81
2022/01/07 12:16:52;;;;;;;3.40;2.42;;;4.70;99.90;;;;;;5018840;28;20223;-82
2022/01/07 12:20:18;;;;;;;0.88;0.75;;;4.70;99.90;;;;;;5019460;28;20211;-81
2022/01/07 12:22:54;;;;;;;0.70;0.50;;;4.80;99.90;;;;;;5019313;28;20200;-80
2022/01/07 12:25:22;;;;;;;0.60;0.60;;;4.80;99.90;;;;;;5018763;28;20210;-81
2022/01/07 12:27:49;;;;;;;0.60;0.60;;;4.90;99.90;;;;;;5016817;28;20192;-81
2022/01/07 12:30:16;;;;;;;0.50;0.50;;;4.90;99.90;;;;;;5017949;28;20748;-80
2022/01/07 12:32:44;;;;;;;11.05;1.95;;;5.00;99.90;;;;;;5016831;28;20192;-80
2022/01/07 12:35:13;;;;;;;0.40;0.40;;;5.10;99.90;;;;;;5014919;28;20202;-81
2022/01/07 12:37:40;;;;;;;1.15;0.75;;;5.10;99.90;;;;;;5025335;28;20207;-82
2022/01/07 12:40:09;;;;;;;0.65;0.60;;;5.10;99.90;;;;;;5031240;28;20206;-79
2022/01/07 12:42:42;;;;;;;1.52;0.95;;;5.10;99.90;;;;;;5035543;28;20568;-80
2022/01/07 12:45:14;;;;;;;0.88;0.80;;;5.10;99.90;;;;;;5018697;28;20216;-79
2022/01/07 12:47:41;;;;;;;2.35;1.13;;;5.00;99.90;;;;;;5016784;28;20196;-82
2022/01/07 12:50:09;;;;;;;1.42;1.33;;;5.10;99.90;;;;;;5015973;28;20196;-79
2022/01/07 12:52:38;;;;;;;1.10;1.02;;;5.00;99.90;;;;;;5016081;28;20208;-80
2022/01/07 12:55:08;;;;;;;1.50;0.88;;;5.00;99.90;;;;;;5030674;28;20259;-83
2022/01/07 12:57:39;;;;;;;2.17;1.73;;;5.00;99.90;;;;;;5016459;28;20263;-80
2022/01/07 13:00:12;;;;;;;2.35;1.30;;;5.00;99.90;;;;;;5015998;28;20196;-81
2022/01/07 13:02:41;;;;;;;2.20;0.50;;;5.00;99.90;;;;;;5015409;28;20199;-81
2022/01/07 13:05:21;;;;;;;0.45;0.40;;;5.00;99.90;;;;;;5018742;28;20219;-81
2022/01/07 13:07:51;;;;;;;0.77;0.77;;;5.10;99.90;;;;;;5016242;28;20187;-80
2022/01/07 13:10:21;;;;;;;2.83;1.70;;;5.00;99.90;;;;;;5024886;28;20203;-79
2022/01/07 13:12:56;;;;;;;0.82;0.82;;;5.00;99.90;;;;;;5020688;28;20245;-79